Time;durP1;ratioP1;P1;durP2;ratioP2;P2;SDS_P1;SDS_P2;PMS_P1;PMS_P2;Temp;Humidity;BMP_temperature;BMP_pressure;BME280_temperature;BME280_humidity;BME280_pressure;Samples;Min_cycle;Max_cycle;Signal;HPM_P1;HPM_P2
2022/06/22 00:01:02;;;;;;;8.55;7.25;;;;;;;22.76;58.35;94325.63;4211040;28;20044;-59
2022/06/22 00:03:06;;;;;;;7.40;6.60;;;;;;;22.78;57.90;94324.34;4206643;28;20047;-57
2022/06/22 00:05:21;;;;;;;10.70;6.88;;;;;;;22.76;58.27;94321.09;4211128;28;20139;-57
2022/06/22 00:07:33;;;;;;;10.15;7.20;;;;;;;22.75;58.16;94316.00;4196210;28;20063;-56
2022/06/22 00:09:38;;;;;;;12.02;6.72;;;;;;;22.81;58.21;94317.69;4212028;28;20058;-56
2022/06/22 00:11:43;;;;;;;17.38;7.68;;;;;;;22.79;58.20;94323.28;4210104;28;20458;-57
2022/06/22 00:13:51;;;;;;;8.90;7.15;;;;;;;22.83;57.71;94332.44;4214854;28;20059;-57
2022/06/22 00:16:22;;;;;;;9.95;6.72;;;;;;;22.92;57.63;94332.81;4215376;28;20044;-57
2022/06/22 00:18:30;;;;;;;10.13;7.00;;;;;;;23.06;57.56;94341.34;4206072;28;20056;-58
2022/06/22 00:20:32;;;;;;;11.57;7.30;;;;;;;23.09;57.17;94338.97;4198269;28;20446;-58
2022/06/22 00:22:51;;;;;;;11.73;6.90;;;;;;;23.10;57.57;94331.75;4209272;28;20101;-57
2022/06/22 00:25:21;;;;;;;9.43;7.40;;;;;;;23.13;57.58;94336.63;4206904;28;20128;-56
2022/06/22 00:27:32;;;;;;;10.52;6.93;;;;;;;23.17;57.08;94321.72;4192947;28;20048;-56
2022/06/22 00:29:36;;;;;;;10.65;6.95;;;;;;;23.24;57.07;94332.22;4215285;28;20047;-55
2022/06/22 00:31:48;;;;;;;14.23;7.30;;;;;;;23.30;57.04;94326.72;4209932;28;20459;-56
2022/06/22 00:34:03;;;;;;;17.17;7.30;;;;;;;23.37;56.70;94326.53;4208346;28;20052;-55
2022/06/22 00:36:14;;;;;;;8.88;7.20;;;;;;;23.41;56.39;94321.50;4194207;28;20068;-55
2022/06/22 00:38:22;;;;;;;10.10;7.13;;;;;;;23.44;56.58;94316.44;4201728;28;20101;-58
2022/06/22 00:40:24;;;;;;;9.07;7.18;;;;;;;23.46;56.65;94324.22;4209970;28;20056;-57
2022/06/22 00:42:47;;;;;;;8.73;6.82;;;;;;;23.49;56.49;94316.53;4208575;28;20074;-55
2022/06/22 00:45:01;;;;;;;10.77;6.90;;;;;;;23.55;56.36;94322.72;4219981;28;20066;-57
2022/06/22 00:47:07;;;;;;;20.02;7.22;;;;;;;23.55;56.29;94322.72;4209392;28;20142;-58
2022/06/22 00:49:11;;;;;;;12.40;7.47;;;;;;;23.57;56.30;94325.16;4208589;28;20079;-56
2022/06/22 00:51:30;;;;;;;9.93;6.88;;;;;;;23.58;56.32;94329.47;4214083;28;20488;-57
2022/06/22 00:53:35;;;;;;;9.73;7.10;;;;;;;23.58;56.51;94332.13;4207063;28;20048;-56
2022/06/22 00:55:42;;;;;;;11.45;7.15;;;;;;;23.59;56.23;94329.19;4179323;28;20155;-58
2022/06/22 00:57:49;;;;;;;7.57;6.57;;;;;;;23.55;56.76;94338.75;4205362;28;20048;-56
2022/06/22 01:00:15;;;;;;;11.15;7.35;;;;;;;23.53;56.85;94332.84;4191697;28;20139;-58
2022/06/22 01:02:31;;;;;;;9.63;7.55;;;;;;;23.55;56.73;94336.09;4197888;28;20105;-57
2022/06/22 01:05:15;;;;;;;10.40;6.95;;;;;;;23.54;56.91;94331.81;4223193;28;20047;-57
2022/06/22 01:07:58;;;;;;;12.30;7.32;;;;;;;23.56;56.63;94329.69;4156421;28;20462;-55
2022/06/22 01:10:04;;;;;;;9.35;7.07;;;;;;;23.55;56.79;94332.63;4103258;28;20143;-56
2022/06/22 01:12:25;;;;;;;9.35;7.07;;;;;;;23.57;56.46;94322.47;4149927;28;20107;-58
2022/06/22 01:14:38;;;;;;;11.52;7.68;;;;;;;23.59;56.78;94318.50;4159628;28;20053;-57
2022/06/22 01:16:41;;;;;;;9.05;7.32;;;;;;;23.58;56.99;94316.09;4171486;28;20045;-56
2022/06/22 01:18:58;;;;;;;9.38;7.53;;;;;;;23.41;57.43;94313.47;4174676;28;20116;-56
2022/06/22 01:21:18;;;;;;;9.07;7.00;;;;;;;23.23;58.02;94325.25;4159300;28;20049;-57
2022/06/22 01:23:35;;;;;;;11.90;7.70;;;;;;;23.11;58.22;94330.72;4167716;28;20429;-51
2022/06/22 01:25:50;;;;;;;10.40;7.75;;;;;;;23.03;58.72;94328.47;4163795;28;20115;-53
2022/06/22 01:27:52;;;;;;;11.30;8.18;;;;;;;22.94;59.14;94319.22;4173623;28;20045;-52
2022/06/22 01:29:56;;;;;;;14.30;7.65;;;;;;;22.94;58.81;94312.00;4177480;28;20068;-53
2022/06/22 01:32:04;;;;;;;11.55;7.80;;;;;;;23.03;58.75;94302.56;4164775;28;20095;-52
2022/06/22 01:34:14;;;;;;;12.43;8.30;;;;;;;23.10;58.33;94310.38;4157693;28;20049;-51
2022/06/22 01:36:21;;;;;;;13.40;8.10;;;;;;;23.17;58.46;94296.88;4182826;28;20048;-53
2022/06/22 01:38:26;;;;;;;8.73;7.82;;;;;;;23.20;58.20;94299.84;4159196;28;20484;-53
2022/06/22 01:40:45;;;;;;;13.13;8.23;;;;;;;23.22;58.19;94300.41;4174928;28;20095;-48
2022/06/22 01:42:54;;;;;;;10.15;7.90;;;;;;;23.26;58.09;94296.19;4166844;28;20080;-53
2022/06/22 01:45:05;;;;;;;12.23;7.82;;;;;;;23.28;58.15;94296.75;4166255;28;20053;-49
2022/06/22 01:47:07;;;;;;;11.80;8.02;;;;;;;23.29;57.95;94285.00;4167148;28;20083;-53
2022/06/22 01:49:19;;;;;;;14.43;8.48;;;;;;;23.25;57.99;94293.75;4169393;28;20119;-52
2022/06/22 01:51:25;;;;;;;10.05;7.85;;;;;;;23.04;58.57;94293.50;4158256;28;20049;-56
2022/06/22 01:53:32;;;;;;;9.50;7.75;;;;;;;22.97;58.73;94292.81;4167057;28;20067;-52
2022/06/22 01:55:44;;;;;;;10.18;8.57;;;;;;;22.98;59.04;94294.44;4157037;28;20057;-51
2022/06/22 01:57:56;;;;;;;14.55;8.75;;;;;;;22.95;58.89;94300.28;4165292;28;20054;-52
2022/06/22 02:00:15;;;;;;;12.95;8.70;;;;;;;22.78;59.68;94302.16;4160333;28;20383;-53
2022/06/22 02:02:27;;;;;;;9.35;8.05;;;;;;;22.64;60.11;94307.84;4173669;28;20047;-48
2022/06/22 02:04:40;;;;;;;13.55;8.35;;;;;;;22.61;60.08;94305.66;4161579;28;20045;-50
2022/06/22 02:09:23;;;;;;;13.15;8.95;;;;;;;22.71;59.94;94302.31;4206560;28;20056;-50
2022/06/22 02:11:27;;;;;;;14.50;8.40;;;;;;;22.76;59.83;94299.75;4206346;28;20490;-51
2022/06/22 02:13:28;;;;;;;12.00;8.23;;;;;;;22.78;59.55;94296.81;4214890;28;20344;-52
2022/06/22 02:15:39;;;;;;;11.52;8.57;;;;;;;22.73;59.44;94286.88;4223153;28;20056;-53
2022/06/22 02:17:42;;;;;;;12.63;8.10;;;;;;;22.78;59.40;94288.81;4211234;28;20471;-51
2022/06/22 02:19:45;;;;;;;13.07;9.23;;;;;;;22.77;59.58;94290.66;4211134;28;20120;-52
2022/06/22 02:21:54;;;;;;;;;;;;;;;22.73;59.81;94289.53;4211679;28;20060;-53
2022/06/22 02:24:02;;;;;;;15.18;8.20;;;;;;;22.67;59.74;94294.00;4211196;28;19923;-49
2022/06/22 02:26:30;;;;;;;11.98;8.75;;;;;;;22.65;59.70;94292.63;4208437;28;20044;-49
2022/06/22 02:28:32;;;;;;;10.50;8.27;;;;;;;22.56;59.87;94289.53;4197288;28;20043;-52
2022/06/22 02:30:34;;;;;;;14.38;8.90;;;;;;;22.58;59.43;94289.31;4201717;28;20086;-55
2022/06/22 02:32:41;;;;;;;14.13;8.93;;;;;;;22.51;59.92;94288.69;4209304;28;20058;-52
2022/06/22 02:34:47;;;;;;;9.10;7.72;;;;;;;22.51;59.55;94296.69;4200567;28;20480;-51
2022/06/22 02:36:54;;;;;;;10.52;8.32;;;;;;;22.48;59.87;94293.44;4210572;28;20056;-51
2022/06/22 02:38:58;;;;;;;12.30;8.73;;;;;;;22.45;60.21;94285.91;4211112;28;20052;-53
2022/06/22 02:45:44;;;;;;;13.60;8.35;;;;;;;22.45;60.29;94283.25;4207021;28;20063;-52
2022/06/22 02:47:57;;;;;;;12.25;9.07;;;;;;;22.48;59.93;94289.97;4199460;28;20048;-48
2022/06/22 02:50:14;;;;;;;11.65;8.90;;;;;;;22.46;60.45;94279.53;4213794;28;20491;-51
2022/06/22 02:52:16;;;;;;;15.07;10.27;;;;;;;22.37;60.49;94281.00;4211715;28;20078;-54
2022/06/22 02:54:24;;;;;;;21.05;9.20;;;;;;;22.14;61.18;94287.25;4208369;28;20134;-51
2022/06/22 02:56:32;;;;;;;19.55;9.52;;;;;;;21.97;62.16;94286.44;4207565;28;20052;-53
2022/06/22 02:58:36;;;;;;;16.05;9.38;;;;;;;21.74;62.60;94284.66;4208994;28;20047;-53
2022/06/22 03:00:40;;;;;;;23.15;9.98;;;;;;;21.58;63.09;94291.56;4215660;28;20754;-54
2022/06/22 03:02:43;;;;;;;18.40;9.40;;;;;;;21.50;63.76;94300.75;4225357;28;20055;-50
2022/06/22 03:04:47;;;;;;;15.90;9.68;;;;;;;21.28;64.34;94304.00;4222170;28;20047;-51
2022/06/22 03:06:51;;;;;;;12.50;9.88;;;;;;;21.22;64.67;94296.16;4208867;28;20056;-53
2022/06/22 03:08:53;;;;;;;16.55;10.32;;;;;;;21.17;64.88;94304.84;4209295;28;20044;-51
2022/06/22 03:10:59;;;;;;;14.50;10.63;;;;;;;21.06;65.31;94300.34;4208329;28;20098;-51
2022/06/22 03:13:00;;;;;;;16.02;9.75;;;;;;;21.06;65.21;94295.03;4212504;28;20129;-52
2022/06/22 03:15:05;;;;;;;12.25;9.35;;;;;;;21.06;65.31;94297.69;4209065;28;20232;-52
2022/06/22 03:17:15;;;;;;;14.55;9.43;;;;;;;21.26;64.80;94295.44;4210404;28;20052;-50
2022/06/22 03:19:25;;;;;;;14.23;9.98;;;;;;;21.46;64.24;94296.94;4194209;28;20143;-50
2022/06/22 03:21:27;;;;;;;15.43;10.85;;;;;;;21.65;63.48;94284.25;4193727;28;20060;-50
2022/06/22 03:24:03;;;;;;;19.00;9.80;;;;;;;21.82;62.94;94302.94;4203542;28;20108;-50
2022/06/22 03:26:23;;;;;;;16.65;9.77;;;;;;;21.83;62.77;94293.88;4196038;28;20051;-52
2022/06/22 03:28:33;;;;;;;18.50;10.73;;;;;;;21.97;62.46;94286.44;4208439;28;20055;-51
2022/06/22 03:30:57;;;;;;;16.92;10.25;;;;;;;22.05;62.26;94289.50;4207131;28;20120;-51
2022/06/22 03:33:04;;;;;;;16.70;9.55;;;;;;;22.12;62.00;94293.88;4203403;28;20052;-48
2022/06/22 03:35:12;;;;;;;16.55;10.57;;;;;;;22.13;61.86;94292.81;4199163;28;20074;-52
2022/06/22 03:37:30;;;;;;;15.25;9.73;;;;;;;22.12;61.79;94289.34;4210270;28;20662;-48
2022/06/22 03:39:35;;;;;;;16.08;10.52;;;;;;;22.09;62.40;94290.66;4208246;28;20096;-53
2022/06/22 03:41:46;;;;;;;16.50;9.10;;;;;;;22.12;62.35;94292.03;4208242;28;20579;-51
2022/06/22 03:43:49;;;;;;;16.30;9.88;;;;;;;22.17;62.07;94300.09;4204059;28;20036;-49
2022/06/22 03:45:58;;;;;;;11.02;9.85;;;;;;;22.14;61.92;94299.78;4206554;28;20052;-52
2022/06/22 03:48:06;;;;;;;15.57;9.68;;;;;;;22.09;62.08;94300.47;4208411;28;20052;-52
2022/06/22 03:50:20;;;;;;;19.55;10.13;;;;;;;22.05;62.04;94294.84;4204558;28;20052;-48
2022/06/22 03:52:36;;;;;;;16.92;10.63;;;;;;;22.10;61.87;94288.78;4216666;28;20079;-48
2022/06/22 03:54:59;;;;;;;16.58;9.75;;;;;;;21.99;62.21;94297.66;4206587;28;20043;-51
2022/06/22 03:57:07;;;;;;;16.90;10.65;;;;;;;21.94;62.48;94308.22;4199006;28;20562;-52
2022/06/22 03:59:09;;;;;;;14.90;10.50;;;;;;;21.89;63.00;94320.41;4206896;28;20128;-49
2022/06/22 04:01:11;;;;;;;17.27;10.38;;;;;;;21.75;63.51;94329.75;4220491;27;20055;-52
2022/06/22 04:03:14;;;;;;;16.52;10.63;;;;;;;21.75;63.36;94320.97;4207506;28;20463;-50
2022/06/22 04:05:19;;;;;;;14.13;10.10;;;;;;;21.70;63.94;94323.50;4205474;28;20245;-47
2022/06/22 04:07:22;;;;;;;19.23;10.32;;;;;;;21.84;63.46;94332.84;4201436;28;20100;-51
2022/06/22 04:09:26;;;;;;;15.60;10.65;;;;;;;21.73;63.72;94323.84;4220357;28;20573;-50
2022/06/22 04:11:48;;;;;;;16.75;10.50;;;;;;;21.86;63.89;94330.75;4206433;28;20099;-50
2022/06/22 04:14:17;;;;;;;20.35;10.32;;;;;;;21.94;63.68;94317.06;4205850;28;20052;-51
2022/06/22 04:16:29;;;;;;;16.55;10.38;;;;;;;22.07;63.51;94311.41;4199938;28;20060;-55
2022/06/22 04:18:37;;;;;;;12.68;10.40;;;;;;;22.14;63.12;94305.13;4213120;28;20052;-50
2022/06/22 04:20:50;;;;;;;18.05;10.38;;;;;;;22.24;63.20;94306.13;4221000;28;20063;-54
2022/06/22 04:22:54;;;;;;;17.23;10.48;;;;;;;22.28;62.72;94303.78;4209711;28;20082;-50
2022/06/22 04:25:05;;;;;;;13.55;10.20;;;;;;;22.38;62.39;94303.97;4207541;28;20076;-50
2022/06/22 04:27:13;;;;;;;17.98;10.38;;;;;;;22.43;62.50;94300.56;4207468;28;20462;-51
2022/06/22 04:29:19;;;;;;;19.80;10.70;;;;;;;22.54;61.93;94304.19;4211350;28;20075;-49
2022/06/22 04:31:26;;;;;;;13.25;10.48;;;;;;;22.55;62.41;94300.50;4215726;28;20101;-49
2022/06/22 04:34:13;;;;;;;14.80;10.68;;;;;;;22.64;62.26;94299.81;4209185;28;20558;-52
2022/06/22 04:36:40;;;;;;;15.80;10.23;;;;;;;22.73;61.61;94305.56;4201524;28;20088;-51
2022/06/22 04:39:00;;;;;;;16.20;10.30;;;;;;;22.77;61.54;94312.03;4195131;28;20116;-51
2022/06/22 04:41:27;;;;;;;15.85;10.23;;;;;;;22.67;61.77;94317.22;4211915;28;20051;-51
2022/06/22 04:43:28;;;;;;;13.77;9.55;;;;;;;22.72;62.28;94319.19;4215311;28;20519;-51
2022/06/22 04:45:34;;;;;;;14.35;10.30;;;;;;;22.84;62.02;94325.22;4198285;28;20490;-53
2022/06/22 04:47:35;;;;;;;15.82;10.45;;;;;;;22.88;61.89;94321.81;4206700;28;20100;-49
2022/06/22 04:49:45;;;;;;;11.50;9.90;;;;;;;22.90;61.68;94326.91;4215264;28;20044;-49
2022/06/22 04:51:59;;;;;;;13.95;10.00;;;;;;;23.01;61.89;94323.34;4208166;28;20475;-52
2022/06/22 04:54:18;;;;;;;;;;;;;;;23.06;61.44;94328.78;4212800;28;20488;-51
2022/06/22 04:56:27;;;;;;;14.57;9.60;;;;;;;23.09;61.43;94333.63;4204734;28;20380;-55
2022/06/22 04:58:38;;;;;;;16.13;9.70;;;;;;;23.22;61.17;94321.78;4198299;28;20538;-53
2022/06/22 05:00:48;;;;;;;12.43;9.68;;;;;;;23.37;61.08;94325.72;4205451;28;20234;-50
2022/06/22 05:02:58;;;;;;;13.50;9.88;;;;;;;23.44;60.70;94331.69;4207850;28;20048;-54
2022/06/22 05:05:05;;;;;;;16.13;10.05;;;;;;;23.41;61.43;94340.22;4208474;28;20048;-49
2022/06/22 05:07:34;;;;;;;10.80;9.65;;;;;;;23.55;60.72;94338.75;4206751;28;20060;-49
2022/06/22 05:09:47;;;;;;;13.68;10.07;;;;;;;23.62;60.37;94338.59;4200402;28;20047;-53
2022/06/22 05:11:49;;;;;;;15.40;9.50;;;;;;;23.36;61.24;94340.97;4208585;28;20044;-50
2022/06/22 05:13:52;;;;;;;14.18;9.18;;;;;;;23.34;61.22;94342.22;4207077;28;20060;-52
2022/06/22 05:15:55;;;;;;;;;;;;;;;23.45;61.20;94336.78;4194679;28;20101;-48
2022/06/22 05:17:58;;;;;;;17.13;8.90;;;;;;;23.22;60.94;94348.50;4209043;28;20231;-52
2022/06/22 05:20:14;;;;;;;20.25;9.95;;;;;;;23.08;61.97;94349.91;4208510;28;20116;-51
2022/06/22 05:22:16;;;;;;;19.15;10.25;;;;;;;23.31;61.56;94348.88;4206194;28;20511;-52
2022/06/22 05:24:22;;;;;;;18.42;9.20;;;;;;;23.48;60.32;94332.81;4208207;28;20092;-49
2022/06/22 05:26:25;;;;;;;22.63;8.98;;;;;;;23.59;60.08;94339.88;4208217;28;20047;-52
2022/06/22 05:28:39;;;;;;;15.35;9.30;;;;;;;23.66;60.19;94339.69;4212929;28;20469;-51
2022/06/22 05:30:54;;;;;;;13.98;8.45;;;;;;;23.79;59.67;94343.88;4210281;28;20546;-51
2022/06/22 05:33:02;;;;;;;15.98;9.77;;;;;;;23.69;59.87;94328.53;4190077;28;20057;-48
2022/06/22 05:35:09;;;;;;;10.75;8.88;;;;;;;23.58;60.30;94338.28;4198700;28;20125;-48
2022/06/22 05:37:15;;;;;;;10.05;9.00;;;;;;;23.31;60.33;94332.84;4190125;28;20542;-53
2022/06/22 05:39:17;;;;;;;14.32;10.43;;;;;;;23.12;60.45;94340.34;4205152;28;20694;-53
2022/06/22 05:41:25;;;;;;;19.88;9.52;;;;;;;23.26;60.63;94330.94;4210269;28;20140;-50
2022/06/22 05:43:27;;;;;;;13.23;9.32;;;;;;;23.47;60.60;94326.66;4201683;28;20060;-49
2022/06/22 05:45:39;;;;;;;18.67;9.75;;;;;;;23.56;60.43;94335.06;4197857;28;20060;-49
2022/06/22 05:47:41;;;;;;;12.52;9.18;;;;;;;23.55;60.29;94346.78;4192020;28;20052;-52
2022/06/22 05:49:56;;;;;;;15.38;9.75;;;;;;;23.42;61.09;94347.16;4209583;28;20116;-49
2022/06/22 05:52:28;;;;;;;15.00;9.93;;;;;;;23.31;61.35;94359.56;4220555;28;20097;-51
2022/06/22 05:54:39;;;;;;;20.10;9.55;;;;;;;23.59;60.94;94350.59;4222235;28;20069;-51
2022/06/22 05:56:52;;;;;;;12.40;9.45;;;;;;;23.59;61.12;94358.59;4209814;28;20127;-48
2022/06/22 05:59:07;;;;;;;12.00;8.83;;;;;;;23.67;60.74;94358.19;4205747;28;20047;-52
2022/06/22 06:01:15;;;;;;;14.25;9.68;;;;;;;23.54;60.98;94355.06;4220502;28;20861;-49
2022/06/22 06:03:32;;;;;;;16.63;10.02;;;;;;;23.70;60.79;94348.84;4210493;28;20327;-51
2022/06/22 06:05:44;;;;;;;17.63;9.60;;;;;;;23.95;60.29;94364.41;4201448;28;20048;-52
2022/06/22 06:07:48;;;;;;;15.60;10.20;;;;;;;23.74;59.99;94365.22;4209804;28;20074;-50
2022/06/22 06:09:50;;;;;;;14.50;9.45;;;;;;;23.45;61.11;94354.69;4207815;28;20120;-46
2022/06/22 06:12:07;;;;;;;15.48;10.15;;;;;;;23.54;61.19;94341.72;4221243;28;20064;-53
2022/06/22 06:14:16;;;;;;;14.52;10.13;;;;;;;23.51;61.34;94341.16;4210055;28;20040;-53
2022/06/22 06:16:25;;;;;;;18.70;11.18;;;;;;;23.70;60.97;94349.69;4208490;28;20048;-52
2022/06/22 06:18:30;;;;;;;15.77;9.55;;;;;;;23.61;61.51;94353.03;4219373;28;20063;-54
2022/06/22 06:20:38;;;;;;;13.77;9.75;;;;;;;23.42;61.85;94347.16;4206983;28;20044;-48
2022/06/22 06:22:40;;;;;;;19.55;10.50;;;;;;;23.60;61.51;94343.41;4214414;28;20052;-50
2022/06/22 06:29:51;;;;;;;22.65;9.98;;;;;;;24.23;60.33;94338.50;4222706;28;20524;-50
2022/06/22 06:32:02;;;;;;;12.68;10.70;;;;;;;24.35;60.11;94341.81;4213238;28;20051;-49
2022/06/22 06:34:19;;;;;;;18.45;10.93;;;;;;;24.50;59.73;94339.31;4218337;28;20117;-51
2022/06/22 06:36:26;;;;;;;13.68;10.00;;;;;;;24.51;60.05;94351.63;4206242;28;20473;-49
2022/06/22 06:38:59;;;;;;;15.35;10.95;;;;;;;24.75;59.28;94345.94;4222091;28;20169;-49
2022/06/22 06:41:07;;;;;;;12.67;11.17;;;;;;;24.88;58.65;94347.38;4202889;28;20099;-49
2022/06/22 06:43:09;;;;;;;16.13;10.75;;;;;;;25.09;58.45;94335.72;4208244;28;20132;-51
2022/06/22 06:45:15;;;;;;;15.98;10.52;;;;;;;25.22;57.96;94333.69;4209542;28;20109;-49
2022/06/22 06:47:45;;;;;;;20.60;9.80;;;;;;;24.71;59.44;94345.63;4216832;28;20051;-50
2022/06/22 06:49:51;;;;;;;15.50;9.65;;;;;;;24.79;59.76;94339.00;4214834;28;20397;-57
2022/06/22 06:51:59;;;;;;;13.18;9.60;;;;;;;24.82;59.11;94341.16;4216761;28;20524;-51
2022/06/22 06:54:07;;;;;;;11.23;10.05;;;;;;;24.79;59.42;94330.97;4222296;28;20085;-49
2022/06/22 06:56:19;;;;;;;14.65;9.80;;;;;;;24.88;59.80;94339.31;4208472;28;20052;-49
2022/06/22 06:58:42;;;;;;;14.07;9.57;;;;;;;25.13;59.28;94334.13;4181536;28;20154;-52
2022/06/22 07:00:45;;;;;;;22.25;10.77;;;;;;;25.27;59.08;94339.88;4205721;28;20147;-48
2022/06/22 07:02:47;;;;;;;14.85;10.65;;;;;;;25.25;58.65;94339.34;4221381;28;20104;-48
2022/06/22 07:04:49;;;;;;;18.10;10.68;;;;;;;25.37;58.20;94341.00;4214276;28;20581;-50
2022/06/22 07:06:52;;;;;;;12.95;10.68;;;;;;;25.42;58.24;94331.09;4220649;28;20188;-47
2022/06/22 07:09:02;;;;;;;;;;;;;;;25.42;58.33;94330.31;4208395;28;20138;-50
2022/06/22 07:11:12;;;;;;;17.60;10.75;;;;;;;25.71;57.90;94325.34;4206096;28;19924;-49
2022/06/22 07:13:18;;;;;;;16.17;10.57;;;;;;;25.84;57.37;94324.06;4203932;28;20064;-49
2022/06/22 07:15:22;;;;;;;18.35;9.65;;;;;;;26.02;56.54;94325.47;4208260;28;20052;-52
2022/06/22 07:17:24;;;;;;;21.23;13.13;;;;;;;25.75;56.58;94321.06;4208045;28;20111;-50
2022/06/22 07:19:31;;;;;;;16.23;11.43;;;;;;;25.61;58.11;94320.72;4204059;28;20048;-53
2022/06/22 07:21:47;;;;;;;19.65;12.70;;;;;;;25.67;57.53;94318.88;4202334;28;20047;-52
2022/06/22 07:24:18;;;;;;;18.73;10.52;;;;;;;25.69;57.46;94325.59;4208751;28;20048;-51
2022/06/22 07:26:41;;;;;;;18.33;11.07;;;;;;;25.64;57.78;94328.28;4197240;28;20051;-50
2022/06/22 07:28:59;;;;;;;18.60;11.90;;;;;;;25.90;57.60;94323.84;4210305;28;20054;-51
2022/06/22 07:31:12;;;;;;;15.55;12.00;;;;;;;26.02;57.17;94322.78;4206703;28;20093;-52
2022/06/22 07:33:35;;;;;;;20.63;13.60;;;;;;;26.11;57.52;94322.00;4197210;28;20047;-55
2022/06/22 07:35:37;;;;;;;18.40;12.97;;;;;;;26.17;57.17;94322.00;4209507;28;20101;-51
2022/06/22 07:38:29;;;;;;;20.50;14.00;;;;;;;26.32;54.87;94319.34;4198320;28;20385;-53
2022/06/22 07:40:32;;;;;;;21.95;15.27;;;;;;;26.44;53.64;94314.53;4192901;28;20118;-53
2022/06/22 07:42:33;;;;;;;27.25;15.80;;;;;;;26.44;53.72;94313.72;4210274;28;20071;-54
2022/06/22 07:44:36;;;;;;;22.10;16.85;;;;;;;26.33;53.65;94315.59;4214655;28;20075;-50
2022/06/22 07:46:45;;;;;;;23.23;15.88;;;;;;;26.14;54.13;94323.34;4212825;28;20091;-51
2022/06/22 07:48:48;;;;;;;23.77;16.70;;;;;;;26.37;53.66;94316.66;4208042;28;20044;-53
2022/06/22 07:50:58;;;;;;;28.10;17.55;;;;;;;26.38;54.45;94318.28;4208907;28;20458;-50
2022/06/22 07:53:28;;;;;;;26.73;16.75;;;;;;;26.36;54.66;94315.06;4214975;27;20097;-53
2022/06/22 07:55:32;;;;;;;18.63;15.38;;;;;;;26.24;55.28;94327.91;4211987;28;20048;-50
2022/06/22 07:58:01;;;;;;;25.70;16.15;;;;;;;26.41;55.25;94330.38;4206691;28;20044;-53
2022/06/22 08:00:12;;;;;;;23.35;15.27;;;;;;;26.44;55.03;94336.03;4195370;28;20060;-53
2022/06/22 08:02:20;;;;;;;25.58;16.75;;;;;;;26.39;54.19;94338.69;4205431;28;20044;-48
2022/06/22 08:04:29;;;;;;;26.02;16.38;;;;;;;26.26;54.22;94323.88;4198594;28;20051;-48
2022/06/22 08:06:48;;;;;;;22.75;16.15;;;;;;;26.49;54.08;94325.25;4205517;28;20126;-49
2022/06/22 08:08:56;;;;;;;27.15;15.88;;;;;;;26.48;53.99;94333.59;4208382;28;20474;-48
2022/06/22 08:11:12;;;;;;;19.33;15.68;;;;;;;26.71;54.08;94343.03;4199977;28;20056;-52
2022/06/22 08:13:18;;;;;;;21.98;15.25;;;;;;;26.23;53.95;94343.22;4202275;28;20478;-52
2022/06/22 08:15:22;;;;;;;21.38;15.57;;;;;;;26.30;53.81;94343.78;4206034;28;20618;-50
2022/06/22 08:17:23;;;;;;;19.35;15.10;;;;;;;26.05;54.87;94339.16;4208931;28;20116;-52
2022/06/22 08:19:27;;;;;;;20.20;14.80;;;;;;;26.01;55.42;94346.13;4221267;28;20093;-53
2022/06/22 08:21:29;;;;;;;21.10;15.05;;;;;;;26.01;55.64;94342.66;4209523;28;20486;-54
2022/06/22 08:23:34;;;;;;;17.92;14.75;;;;;;;26.21;55.23;94349.94;4218254;28;20051;-53
2022/06/22 08:25:36;;;;;;;22.15;14.02;;;;;;;26.13;53.61;94335.16;4195402;28;20094;-48
2022/06/22 08:27:39;;;;;;;18.88;12.30;;;;;;;26.47;52.89;94338.16;4206325;28;20504;-48
2022/06/22 08:29:43;;;;;;;20.98;12.50;;;;;;;26.78;53.49;94322.09;4206095;28;20577;-53
2022/06/22 08:31:59;;;;;;;21.02;12.95;;;;;;;26.97;53.14;94325.00;4211526;28;20123;-51
2022/06/22 08:34:27;;;;;;;18.20;13.10;;;;;;;27.12;52.68;94319.59;4216105;28;20079;-49
2022/06/22 08:36:36;;;;;;;17.08;12.93;;;;;;;27.09;52.94;94322.84;4203002;28;20045;-51
2022/06/22 08:38:47;;;;;;;16.00;13.73;;;;;;;26.88;52.61;94319.38;4207505;28;20044;-51
2022/06/22 08:41:26;;;;;;;18.88;12.60;;;;;;;26.59;52.42;94334.44;4213738;28;20589;-52
2022/06/22 08:43:41;;;;;;;18.75;13.35;;;;;;;26.42;53.58;94338.16;4196351;28;20062;-50
2022/06/22 08:46:07;;;;;;;18.70;12.80;;;;;;;26.50;52.37;94331.44;4220978;28;20055;-49
2022/06/22 08:48:15;;;;;;;15.65;12.50;;;;;;;26.65;51.71;94322.63;4209137;28;20040;-49
2022/06/22 08:50:28;;;;;;;21.88;12.73;;;;;;;26.91;50.93;94326.91;4208700;28;20130;-52
2022/06/22 08:52:33;;;;;;;19.55;10.70;;;;;;;26.68;49.98;94352.44;4208562;28;20056;-51
2022/06/22 08:55:03;;;;;;;12.07;9.27;;;;;;;26.58;48.21;94311.34;4208980;28;20500;-50
2022/06/22 08:57:15;;;;;;;18.13;9.95;;;;;;;26.47;49.60;94331.97;4208534;28;20565;-52
2022/06/22 08:59:48;;;;;;;13.52;10.15;;;;;;;26.68;49.98;94314.03;4212481;28;20044;-53
2022/06/22 09:01:59;;;;;;;15.98;10.18;;;;;;;27.11;49.96;94322.59;4193540;28;20052;-50
2022/06/22 09:04:25;;;;;;;16.38;11.55;;;;;;;27.22;49.00;94324.19;4214790;28;20047;-50
2022/06/22 09:06:33;;;;;;;17.10;10.90;;;;;;;27.09;49.67;94311.31;4195492;28;20129;-51
2022/06/22 09:08:40;;;;;;;12.57;10.27;;;;;;;26.91;50.08;94312.66;4208371;28;20047;-50
2022/06/22 09:11:03;;;;;;;15.82;11.45;;;;;;;26.89;50.52;94298.72;4208276;28;20044;-53
2022/06/22 09:13:11;;;;;;;13.40;10.38;;;;;;;27.22;49.92;94308.06;4208653;28;20740;-53
2022/06/22 09:15:50;;;;;;;16.20;9.98;;;;;;;27.50;49.68;94301.25;4207123;28;20048;-55
2022/06/22 09:18:22;;;;;;;11.57;9.00;;;;;;;27.70;48.81;94299.56;4212894;28;20052;-51
2022/06/22 09:20:45;;;;;;;14.13;10.23;;;;;;;27.61;49.06;94318.16;4204584;28;20194;-52
2022/06/22 09:22:58;;;;;;;15.88;9.65;;;;;;;27.57;47.63;94301.75;4202975;28;20355;-49
2022/06/22 09:25:23;;;;;;;12.60;8.57;;;;;;;27.60;46.34;94299.59;4205948;28;20480;-52
2022/06/22 09:27:45;;;;;;;12.23;8.77;;;;;;;27.75;46.76;94280.72;4208795;28;20097;-49
2022/06/22 09:30:05;;;;;;;18.23;9.45;;;;;;;27.88;46.76;94296.28;4207353;28;20062;-50
2022/06/22 09:32:22;;;;;;;14.32;9.30;;;;;;;27.94;46.18;94275.50;4203364;28;20055;-51
2022/06/22 09:34:42;;;;;;;16.88;9.63;;;;;;;28.07;46.06;94290.25;4213199;28;20096;-51
2022/06/22 09:36:57;;;;;;;12.82;8.43;;;;;;;27.94;46.16;94273.66;4213274;28;20514;-53
2022/06/22 09:39:29;;;;;;;20.02;8.63;;;;;;;27.75;46.55;94278.81;4207080;28;20532;-52
2022/06/22 09:42:07;;;;;;;14.07;8.52;;;;;;;27.97;46.62;94272.28;4211988;28;20056;-53
2022/06/22 09:44:12;;;;;;;16.90;9.27;;;;;;;27.88;46.24;94273.97;4221777;28;20059;-52
2022/06/22 09:46:26;;;;;;;16.05;8.90;;;;;;;27.56;45.82;94284.03;4206353;28;20361;-53
2022/06/22 09:48:46;;;;;;;18.10;7.90;;;;;;;27.01;47.42;94276.91;4208570;28;20087;-54
2022/06/22 09:50:54;;;;;;;14.80;8.52;;;;;;;27.47;47.34;94271.41;4207586;28;20059;-50
2022/06/22 09:53:08;;;;;;;11.45;7.68;;;;;;;27.53;46.26;94273.00;4204518;28;20056;-49
2022/06/22 09:58:24;;;;;;;14.52;7.60;;;;;;;27.14;47.56;94285.19;4198863;28;20056;-55
2022/06/22 10:00:36;;;;;;;16.48;8.77;;;;;;;27.55;46.98;94286.97;4200552;28;20098;-51
2022/06/22 10:03:13;;;;;;;17.17;8.40;;;;;;;27.23;47.90;94284.66;4203294;28;20059;-50
2022/06/22 10:05:24;;;;;;;13.27;8.43;;;;;;;27.34;48.83;94289.75;4159882;28;20480;-52
2022/06/22 10:07:34;;;;;;;14.35;7.70;;;;;;;27.62;47.76;94290.19;4193161;28;20060;-53
2022/06/22 10:10:00;;;;;;;17.33;8.68;;;;;;;27.78;47.25;94297.09;4206137;28;20114;-52
2022/06/22 10:12:09;;;;;;;15.98;8.27;;;;;;;27.64;48.17;94311.44;4192894;28;20052;-51
2022/06/22 10:14:34;;;;;;;15.93;9.05;;;;;;;27.76;47.81;94293.88;4210024;28;20512;-49
2022/06/22 10:16:58;;;;;;;10.93;8.43;;;;;;;27.69;48.74;94304.16;4201575;28;20059;-49
2022/06/22 10:19:29;;;;;;;13.68;8.20;;;;;;;27.88;47.94;94300.88;4216930;28;20040;-52
2022/06/22 10:21:39;;;;;;;15.30;8.13;;;;;;;28.08;48.09;94308.81;4206249;28;20081;-50
2022/06/22 10:23:59;;;;;;;12.82;8.20;;;;;;;27.82;48.17;94313.50;4207958;28;20105;-48
2022/06/22 10:26:10;;;;;;;12.60;8.00;;;;;;;27.63;48.95;94323.28;4198678;28;20052;-51
2022/06/22 10:28:25;;;;;;;18.40;9.40;;;;;;;27.45;49.59;94317.44;4200553;28;20109;-50